createdAt,value
2023-03-18T00:00:01.375Z,13.19
2023-03-18T00:10:22.846Z,13.20
2023-03-18T00:20:45.264Z,13.28
2023-03-18T00:31:09.032Z,13.36
2023-03-18T00:41:33.051Z,13.19
2023-03-18T00:51:54.392Z,12.91
2023-03-18T01:02:15.908Z,12.77
2023-03-18T01:12:38.334Z,12.69
2023-03-18T01:23:01.346Z,12.67
2023-03-18T01:33:23.362Z,12.61
2023-03-18T01:43:44.795Z,12.56
2023-03-18T01:54:07.745Z,12.55
2023-03-18T02:04:31.927Z,12.54
2023-03-18T02:14:53.691Z,12.56
2023-03-18T02:25:27.100Z,12.58
2023-03-18T02:35:51.896Z,12.60
2023-03-18T02:46:34.197Z,12.64
2023-03-18T02:56:55.718Z,12.66
2023-03-18T03:07:17.446Z,12.67
2023-03-18T03:17:39.534Z,12.62
2023-03-18T03:28:01.098Z,12.58
2023-03-18T03:38:23.064Z,12.52
2023-03-18T03:48:44.826Z,12.48
2023-03-18T03:59:06.248Z,12.43
2023-03-18T04:09:27.652Z,12.35
2023-03-18T04:19:49.508Z,12.28
2023-03-18T04:30:11.528Z,12.08
2023-03-18T04:40:33.225Z,11.96
2023-03-18T04:50:54.932Z,11.94
2023-03-18T05:01:16.361Z,11.94
2023-03-18T05:11:38.183Z,11.89
2023-03-18T05:22:00.210Z,11.86
2023-03-18T05:32:21.670Z,11.85
2023-03-18T05:42:55.495Z,11.80
2023-03-18T05:53:18.202Z,11.84
2023-03-18T06:03:41.056Z,11.79
2023-03-18T06:14:04.675Z,11.83
2023-03-18T06:24:26.377Z,11.83
2023-03-18T06:34:47.774Z,11.82
2023-03-18T06:45:10.010Z,11.74
2023-03-18T06:55:31.883Z,11.62
2023-03-18T07:05:54.314Z,11.56
2023-03-18T07:16:15.889Z,11.51
2023-03-18T07:26:37.503Z,11.53
2023-03-18T07:36:58.962Z,11.57
2023-03-18T07:47:20.937Z,11.64
2023-03-18T07:57:42.927Z,11.68
2023-03-18T08:08:05.292Z,11.76
2023-03-18T08:18:27.239Z,11.82
2023-03-18T08:28:48.822Z,11.95
2023-03-18T08:39:11.139Z,12.08
2023-03-18T08:49:33.202Z,12.38
2023-03-18T08:59:54.624Z,12.72
2023-03-18T09:10:17.708Z,13.03
2023-03-18T09:20:40.191Z,13.36
2023-03-18T09:31:01.866Z,13.56
2023-03-18T09:41:48.219Z,13.59
2023-03-18T09:52:22.347Z,13.68
2023-03-18T10:02:55.589Z,13.79
2023-03-18T10:13:17.373Z,13.90
2023-03-18T10:23:44.953Z,13.90
2023-03-18T10:34:06.630Z,14.02
2023-03-18T10:44:34.179Z,14.18
2023-03-18T10:54:55.553Z,14.38
2023-03-18T11:05:23.092Z,14.52
2023-03-18T11:15:50.078Z,14.61
2023-03-18T11:26:17.955Z,14.73
2023-03-18T11:36:39.317Z,15.00
2023-03-18T11:47:06.878Z,15.08
2023-03-18T11:57:47.088Z,15.21
2023-03-18T12:08:14.874Z,15.39
2023-03-18T12:18:56.326Z,15.51
2023-03-18T12:29:30.520Z,15.74
2023-03-18T12:39:59.495Z,15.94
2023-03-18T12:50:26.846Z,16.20
2023-03-18T13:00:59.486Z,16.13
2023-03-18T13:11:36.315Z,16.38
2023-03-18T13:22:09.929Z,16.45
2023-03-18T13:32:49.774Z,16.47
2023-03-18T13:43:15.858Z,16.73
2023-03-18T13:53:42.037Z,16.82
2023-03-18T14:04:15.852Z,16.87
2023-03-18T14:14:56.945Z,17.12
2023-03-18T14:25:18.348Z,16.95
2023-03-18T14:35:48.946Z,17.18
2023-03-18T14:46:18.924Z,17.47
2023-03-18T14:56:41.668Z,17.45
2023-03-18T15:07:07.198Z,17.45
2023-03-18T15:17:28.643Z,17.39
2023-03-18T15:27:50.087Z,17.49
2023-03-18T15:38:19.278Z,17.60
2023-03-18T15:48:43.697Z,17.26
2023-03-18T15:59:07.123Z,17.05
2023-03-18T16:09:28.653Z,16.89
2023-03-18T16:19:54.336Z,16.84
2023-03-18T16:30:20.473Z,16.76
2023-03-18T16:40:42.403Z,16.57
2023-03-18T16:51:04.551Z,16.44
2023-03-18T17:01:27.986Z,16.38
2023-03-18T17:11:49.818Z,16.28
2023-03-18T17:22:19.792Z,16.16
2023-03-18T17:32:41.173Z,15.98
2023-03-18T17:43:02.650Z,15.83
2023-03-18T17:53:24.170Z,15.80
2023-03-18T18:03:45.653Z,15.68
2023-03-18T18:14:22.246Z,15.56
2023-03-18T18:24:46.009Z,15.50
2023-03-18T18:35:07.762Z,15.47
2023-03-18T18:45:29.308Z,15.39
2023-03-18T18:56:01.197Z,15.36
2023-03-18T19:06:31.174Z,15.32
2023-03-18T19:16:53.814Z,15.27
2023-03-18T19:27:26.592Z,15.16
2023-03-18T19:37:48.360Z,15.04
2023-03-18T19:48:14.848Z,14.89
2023-03-18T19:58:36.628Z,14.77
2023-03-18T20:08:58.409Z,14.69
2023-03-18T20:19:20.700Z,14.60
2023-03-18T20:29:42.318Z,14.58
2023-03-18T20:40:04.746Z,14.39
2023-03-18T20:50:30.745Z,14.22
2023-03-18T21:00:52.999Z,14.03
2023-03-18T21:11:19.763Z,13.76
2023-03-18T21:21:41.392Z,13.67
2023-03-18T21:32:03.098Z,13.50
2023-03-18T21:42:26.160Z,13.29
2023-03-18T21:52:47.803Z,13.12
2023-03-18T22:03:15.813Z,12.97
2023-03-18T22:13:37.501Z,12.82
2023-03-18T22:24:00.259Z,12.67
2023-03-18T22:34:23.087Z,12.54
2023-03-18T22:44:44.533Z,12.47
2023-03-18T22:55:14.987Z,12.31
2023-03-18T23:05:36.362Z,12.13
2023-03-18T23:15:58.319Z,12.03
2023-03-18T23:26:20.365Z,11.88
2023-03-18T23:36:42.422Z,11.72
2023-03-18T23:47:04.134Z,11.62
2023-03-18T23:57:25.633Z,11.60
